Time;durP1;ratioP1;P1;durP2;ratioP2;P2;SDS_P1;SDS_P2;PMS_P1;PMS_P2;Temp;Humidity;BMP_temperature;BMP_pressure;BME280_temperature;BME280_humidity;BME280_pressure;Samples;Min_cycle;Max_cycle;Signal;HPM_P1;HPM_P2
2022/01/01 00:00:08;;;;;;;61.03;25.15;;;11.60;99.90;;;;;;4956712;28;20018;-80
2022/01/01 00:02:34;;;;;;;55.28;21.60;;;11.60;99.90;;;;;;4957553;28;20039;-81
2022/01/01 00:05:00;;;;;;;63.58;24.77;;;11.60;99.90;;;;;;4958904;28;20057;-77
2022/01/01 00:07:26;;;;;;;67.43;28.80;;;11.60;99.90;;;;;;4956515;28;20055;-78
2022/01/01 00:09:52;;;;;;;75.97;33.17;;;11.60;99.90;;;;;;4962127;28;20062;-78
2022/01/01 00:12:18;;;;;;;58.78;25.35;;;11.60;99.90;;;;;;4969746;28;20051;-80
2022/01/01 00:14:44;;;;;;;57.35;21.73;;;11.50;99.90;;;;;;4964558;28;20058;-79
2022/01/01 00:17:10;;;;;;;61.25;20.25;;;11.50;99.90;;;;;;4961626;28;20055;-79
2022/01/01 00:19:36;;;;;;;;;;;11.50;99.90;;;;;;4961041;28;20097;-78
2022/01/01 00:22:03;;;;;;;50.30;18.65;;;11.50;99.90;;;;;;4950013;28;19918;-78
2022/01/01 00:24:29;;;;;;;55.15;21.45;;;11.50;99.90;;;;;;4944317;28;20050;-82
2022/01/01 00:26:54;;;;;;;61.70;23.35;;;11.40;99.90;;;;;;4939346;28;20445;-79
2022/01/01 00:29:20;;;;;;;71.47;28.52;;;11.50;99.90;;;;;;4953435;28;20043;-78
2022/01/01 00:31:46;;;;;;;79.18;30.45;;;11.40;99.90;;;;;;4956665;28;20054;-79
2022/01/01 00:34:12;;;;;;;;;;;11.40;99.90;;;;;;4966115;28;20409;-80
2022/01/01 00:36:38;;;;;;;77.25;29.13;;;11.40;99.90;;;;;;4960023;28;19933;-78
2022/01/01 00:39:04;;;;;;;;;;;11.40;99.90;;;;;;4969893;28;20039;-78
2022/01/01 00:41:30;;;;;;;77.90;27.95;;;11.40;99.90;;;;;;4962224;28;19922;-78
2022/01/01 00:43:56;;;;;;;78.07;29.33;;;11.40;99.90;;;;;;4968815;28;20058;-78
2022/01/01 00:46:22;;;;;;;87.28;29.95;;;11.50;99.90;;;;;;4971355;28;20050;-78
2022/01/01 00:48:48;;;;;;;85.72;31.60;;;11.40;99.90;;;;;;4986808;28;20062;-79
2022/01/01 00:51:14;;;;;;;67.13;28.13;;;11.40;99.90;;;;;;4971152;28;20061;-78
2022/01/01 00:53:39;;;;;;;69.68;23.55;;;11.40;99.90;;;;;;4971220;28;20050;-78
2022/01/01 00:56:05;;;;;;;66.82;26.42;;;11.40;99.90;;;;;;4954499;28;20053;-78
2022/01/01 00:58:31;;;;;;;72.13;30.05;;;11.40;99.90;;;;;;4954235;28;20054;-78
2022/01/01 01:00:56;;;;;;;78.97;30.65;;;11.40;99.90;;;;;;4952786;28;20051;-79
2022/01/01 01:03:22;;;;;;;73.15;31.15;;;11.40;99.90;;;;;;4946537;28;20050;-79
2022/01/01 01:05:48;;;;;;;78.55;31.73;;;11.40;99.90;;;;;;4954985;28;20759;-83
2022/01/01 01:08:16;;;;;;;71.38;31.10;;;11.30;99.90;;;;;;4987193;28;20073;-79
2022/01/01 01:10:46;;;;;;;69.75;32.00;;;11.30;99.90;;;;;;4970751;28;20066;-78
2022/01/01 01:13:15;;;;;;;78.20;32.08;;;11.30;99.90;;;;;;4969687;28;20082;-79
2022/01/01 01:15:41;;;;;;;74.18;32.13;;;11.30;99.90;;;;;;4970189;28;20129;-79
2022/01/01 01:18:06;;;;;;;;;;;11.30;99.90;;;;;;4970209;28;20074;-78
2022/01/01 01:20:32;;;;;;;69.63;31.67;;;11.30;99.90;;;;;;4938254;28;19987;-80
2022/01/01 01:22:58;;;;;;;78.35;32.97;;;11.20;99.90;;;;;;4936252;28;20200;-80
2022/01/01 01:25:28;;;;;;;82.60;31.67;;;11.20;99.90;;;;;;4970359;28;20541;-78
2022/01/01 01:27:54;;;;;;;69.40;32.38;;;11.20;99.90;;;;;;4971023;28;20062;-78
2022/01/01 01:30:22;;;;;;;80.25;33.78;;;11.20;99.90;;;;;;4985316;28;20393;-78
2022/01/01 01:32:48;;;;;;;86.28;39.75;;;11.20;99.90;;;;;;4954618;28;20058;-78
2022/01/01 01:35:14;;;;;;;91.43;36.95;;;11.20;99.90;;;;;;4970307;28;20078;-77
2022/01/01 01:37:40;;;;;;;89.93;35.55;;;11.20;99.90;;;;;;4970604;28;20078;-78
2022/01/01 01:40:07;;;;;;;87.88;34.55;;;11.20;99.90;;;;;;4969246;28;20503;-78
2022/01/01 01:42:34;;;;;;;91.72;38.65;;;11.20;99.90;;;;;;4969849;28;20086;-78
2022/01/01 01:45:01;;;;;;;82.95;36.92;;;11.20;99.90;;;;;;4983883;28;20077;-79
2022/01/01 01:47:34;;;;;;;99.15;39.00;;;11.10;99.90;;;;;;4970069;28;20054;-79
2022/01/01 01:50:03;;;;;;;77.82;37.28;;;11.20;99.90;;;;;;4966950;28;20054;-78
2022/01/01 01:52:35;;;;;;;85.85;36.58;;;11.20;99.90;;;;;;4935524;29;20085;-78
2022/01/01 01:55:04;;;;;;;92.88;36.20;;;11.20;99.90;;;;;;4969600;28;20050;-78
2022/01/01 01:57:30;;;;;;;88.80;36.78;;;11.20;99.90;;;;;;4970591;28;20082;-77
2022/01/01 01:59:56;;;;;;;90.68;39.33;;;11.20;99.90;;;;;;4968311;28;20082;-78
2022/01/01 02:02:22;;;;;;;99.80;40.15;;;11.20;99.90;;;;;;4985979;28;20047;-79
2022/01/01 02:04:48;;;;;;;79.97;34.25;;;11.20;99.90;;;;;;4970623;28;20062;-78
2022/01/01 02:07:14;;;;;;;91.75;39.72;;;11.20;99.90;;;;;;4985915;28;20150;-79
2022/01/01 02:09:40;;;;;;;108.95;42.35;;;11.20;99.90;;;;;;4954007;28;20573;-79
2022/01/01 02:12:07;;;;;;;87.10;37.63;;;11.20;99.90;;;;;;4969994;28;20055;-78
2022/01/01 02:17:40;;;;;;;95.43;39.22;;;11.10;99.90;;;;;;4961623;28;20047;-79
2022/01/01 02:20:19;;;;;;;96.00;39.33;;;11.00;99.90;;;;;;4952898;28;20065;-79
2022/01/01 02:22:47;;;;;;;96.50;39.63;;;11.00;99.90;;;;;;4969548;28;20110;-78
2022/01/01 02:25:19;;;;;;;84.75;36.15;;;11.00;99.90;;;;;;4973570;28;20046;-79
2022/01/01 02:27:45;;;;;;;95.03;38.55;;;11.00;99.90;;;;;;4973930;28;20038;-78
2022/01/01 02:30:13;;;;;;;89.05;35.42;;;11.00;99.90;;;;;;4939992;28;20475;-80
2022/01/01 02:32:40;;;;;;;95.70;35.28;;;11.00;99.90;;;;;;4958236;28;20149;-78
2022/01/01 02:35:07;;;;;;;103.00;40.40;;;11.00;99.90;;;;;;4973558;28;20046;-77
2022/01/01 02:37:35;;;;;;;87.13;36.85;;;10.90;99.90;;;;;;4938701;29;20082;-80
2022/01/01 02:40:01;;;;;;;87.50;37.45;;;10.90;99.90;;;;;;4960275;28;20054;-79
2022/01/01 02:42:26;;;;;;;85.68;34.25;;;10.90;99.90;;;;;;4973410;28;20423;-78
2022/01/01 02:44:54;;;;;;;96.53;37.28;;;10.90;99.90;;;;;;4972282;28;20065;-78
2022/01/01 02:47:20;;;;;;;102.18;38.58;;;10.90;99.90;;;;;;4972635;28;20082;-78
2022/01/01 02:49:46;;;;;;;97.32;38.28;;;10.90;99.90;;;;;;4957475;28;20101;-78
2022/01/01 02:52:12;;;;;;;97.28;36.92;;;10.90;99.90;;;;;;4973258;28;20054;-78
2022/01/01 02:54:37;;;;;;;98.72;39.28;;;11.00;99.90;;;;;;4989481;28;20057;-79
2022/01/01 02:57:03;;;;;;;90.53;36.80;;;11.00;99.90;;;;;;4973390;28;20082;-78
2022/01/01 02:59:29;;;;;;;105.18;40.63;;;11.00;99.90;;;;;;4971675;28;20489;-79
2022/01/01 03:01:55;;;;;;;96.65;37.92;;;11.00;99.90;;;;;;4973476;28;20094;-79
2022/01/01 03:04:20;;;;;;;93.07;42.00;;;11.00;99.90;;;;;;4954355;28;20477;-79
2022/01/01 03:06:53;;;;;;;101.93;39.50;;;11.00;99.90;;;;;;4950828;29;20133;-78
2022/01/01 03:09:19;;;;;;;104.07;42.70;;;11.00;99.90;;;;;;4938222;29;20142;-78
2022/01/01 03:11:45;;;;;;;103.30;43.05;;;11.10;99.90;;;;;;4973451;28;20047;-78
2022/01/01 03:14:12;;;;;;;112.25;44.75;;;11.10;99.90;;;;;;4987318;28;20099;-78
2022/01/01 03:16:37;;;;;;;100.47;38.92;;;11.10;99.90;;;;;;4973177;28;20047;-78
2022/01/01 03:19:03;;;;;;;105.78;42.15;;;11.00;99.90;;;;;;4954683;28;20508;-78
2022/01/01 03:21:29;;;;;;;103.07;39.28;;;11.10;99.90;;;;;;4972814;28;20050;-78
2022/01/01 03:23:55;;;;;;;111.35;43.10;;;11.10;99.90;;;;;;4972910;28;20113;-78
2022/01/01 03:26:20;;;;;;;98.10;41.42;;;11.10;99.90;;;;;;4956482;28;20555;-78
2022/01/01 03:28:46;;;;;;;107.05;41.40;;;11.00;99.90;;;;;;4988186;28;20050;-78
2022/01/01 03:31:12;;;;;;;93.70;39.70;;;11.10;99.90;;;;;;4988003;28;20382;-78
2022/01/01 03:33:37;;;;;;;108.32;41.40;;;11.10;99.90;;;;;;4988311;28;20062;-78
2022/01/01 03:36:04;;;;;;;101.85;41.55;;;11.10;99.90;;;;;;4972645;28;20050;-83
2022/01/01 03:38:30;;;;;;;99.88;42.20;;;11.10;99.90;;;;;;4972545;28;20053;-78
2022/01/01 03:40:56;;;;;;;99.70;42.83;;;11.10;99.90;;;;;;4972371;28;20047;-77
2022/01/01 03:43:22;;;;;;;106.20;42.28;;;11.10;99.90;;;;;;4956108;28;20046;-77
2022/01/01 03:45:47;;;;;;;99.60;42.80;;;11.10;99.90;;;;;;4943796;28;20480;-78
2022/01/01 03:48:13;;;;;;;101.10;40.92;;;11.10;99.90;;;;;;4939818;28;20063;-79
2022/01/01 03:50:39;;;;;;;94.38;38.83;;;11.00;99.90;;;;;;4956506;28;20086;-78
2022/01/01 03:53:04;;;;;;;102.10;42.72;;;11.00;99.90;;;;;;4956279;28;20179;-83
2022/01/01 03:55:30;;;;;;;115.03;47.22;;;11.00;99.90;;;;;;4956039;28;20051;-79
2022/01/01 03:57:56;;;;;;;111.95;42.78;;;11.00;99.90;;;;;;4955914;28;20502;-78
2022/01/01 04:00:22;;;;;;;102.50;45.85;;;11.00;99.90;;;;;;4937707;28;20047;-78
2022/01/01 04:02:48;;;;;;;;;;;11.10;99.90;;;;;;4972846;28;20354;-78
2022/01/01 04:05:13;;;;;;;105.18;41.65;;;11.10;99.90;;;;;;4955615;28;19930;-78
2022/01/01 04:07:39;;;;;;;107.80;42.42;;;11.00;99.90;;;;;;4956208;28;20374;-78
2022/01/01 04:10:05;;;;;;;98.28;42.22;;;11.00;99.90;;;;;;4972051;28;20062;-78
2022/01/01 04:12:31;;;;;;;;;;;11.10;99.90;;;;;;4956442;28;20492;-78
2022/01/01 04:15:00;;;;;;;101.10;37.55;;;11.10;99.90;;;;;;4954642;28;20020;-78
2022/01/01 04:17:27;;;;;;;93.38;36.92;;;11.00;99.90;;;;;;4939754;28;20062;-78
2022/01/01 04:19:52;;;;;;;100.38;40.47;;;11.10;99.90;;;;;;4955693;28;20137;-78
2022/01/01 04:22:18;;;;;;;100.00;40.53;;;11.10;99.90;;;;;;4954129;28;20125;-78
2022/01/01 04:24:44;;;;;;;94.47;40.47;;;11.10;99.90;;;;;;4938014;28;20082;-78
2022/01/01 04:27:10;;;;;;;102.05;41.45;;;11.10;99.90;;;;;;4939726;28;20051;-81
2022/01/01 04:29:36;;;;;;;103.60;40.78;;;11.10;99.90;;;;;;4953409;28;20061;-78
2022/01/01 04:32:03;;;;;;;93.63;40.55;;;11.10;99.90;;;;;;4955798;28;20141;-78
2022/01/01 04:34:28;;;;;;;96.30;41.08;;;11.10;99.90;;;;;;4955243;28;20054;-78
2022/01/01 04:37:04;;;;;;;103.28;41.03;;;11.00;99.90;;;;;;4924040;28;20054;-79
2022/01/01 04:39:30;;;;;;;96.35;41.22;;;11.00;99.90;;;;;;4954503;28;20118;-78
2022/01/01 04:41:56;;;;;;;105.43;42.78;;;11.00;99.90;;;;;;4961951;28;20092;-78
2022/01/01 04:44:21;;;;;;;100.28;40.67;;;11.00;99.90;;;;;;4953071;28;20115;-81
2022/01/01 04:46:47;;;;;;;99.68;39.03;;;11.00;99.90;;;;;;4955536;28;20056;-78
2022/01/01 04:49:13;;;;;;;98.78;41.45;;;11.00;99.90;;;;;;4954964;28;20057;-83
2022/01/01 04:51:38;;;;;;;100.32;38.00;;;11.10;99.90;;;;;;4971471;28;20058;-78
2022/01/01 04:54:10;;;;;;;93.47;40.92;;;11.00;99.90;;;;;;4987419;28;20078;-78
2022/01/01 04:56:42;;;;;;;103.13;40.15;;;11.00;99.90;;;;;;4986989;28;20121;-79
2022/01/01 04:59:08;;;;;;;110.32;42.75;;;11.00;99.90;;;;;;4949760;29;20498;-78
2022/01/01 05:01:34;;;;;;;104.55;42.15;;;11.10;99.90;;;;;;4967623;28;20047;-78
2022/01/01 05:04:00;;;;;;;101.57;40.20;;;11.10;99.90;;;;;;4968180;28;20080;-78
2022/01/01 05:06:26;;;;;;;106.55;42.20;;;11.00;99.90;;;;;;4947836;28;20057;-78
2022/01/01 05:08:52;;;;;;;93.63;38.45;;;11.10;99.90;;;;;;4970739;28;20567;-78
2022/01/01 05:11:17;;;;;;;98.05;37.65;;;11.00;99.90;;;;;;4970783;28;20054;-77
2022/01/01 05:13:43;;;;;;;99.15;38.50;;;11.00;99.90;;;;;;4986295;28;20894;-78
2022/01/01 05:16:14;;;;;;;100.65;41.15;;;11.00;99.90;;;;;;4970331;28;20053;-78
2022/01/01 05:18:40;;;;;;;90.07;35.33;;;11.00;99.90;;;;;;4955481;28;20507;-78
2022/01/01 05:21:06;;;;;;;94.80;39.33;;;11.10;99.90;;;;;;4970904;28;20043;-78
2022/01/01 05:23:32;;;;;;;100.80;41.08;;;11.00;99.90;;;;;;4970390;28;20047;-78
2022/01/01 05:25:58;;;;;;;91.53;35.95;;;11.10;99.90;;;;;;4954861;28;20054;-78
2022/01/01 05:28:23;;;;;;;92.28;39.75;;;11.00;99.90;;;;;;4969900;28;20047;-81
2022/01/01 05:30:51;;;;;;;91.05;37.92;;;11.00;99.90;;;;;;4969875;28;20057;-78
2022/01/01 05:33:17;;;;;;;96.05;36.88;;;11.10;99.90;;;;;;4970630;28;20043;-82
2022/01/01 05:35:42;;;;;;;100.63;36.95;;;11.10;99.90;;;;;;4954897;28;20050;-78
2022/01/01 05:38:08;;;;;;;86.38;36.13;;;11.10;99.90;;;;;;4970998;28;20047;-77
2022/01/01 05:40:34;;;;;;;92.28;39.00;;;11.10;99.90;;;;;;4985987;28;20054;-79
2022/01/01 05:43:00;;;;;;;92.80;38.22;;;11.10;99.90;;;;;;4954914;28;20074;-78
2022/01/01 05:45:25;;;;;;;89.60;35.03;;;11.10;99.90;;;;;;4969843;28;20066;-80
2022/01/01 05:47:51;;;;;;;75.80;28.63;;;11.20;99.90;;;;;;4954905;28;20550;-77
2022/01/01 05:50:17;;;;;;;93.25;36.65;;;11.10;99.90;;;;;;4938819;28;20050;-78
2022/01/01 05:52:43;;;;;;;73.53;29.70;;;11.10;99.90;;;;;;4954175;28;20101;-78
2022/01/01 05:55:09;;;;;;;84.13;31.95;;;11.20;99.90;;;;;;4954405;28;20085;-79
2022/01/01 05:57:35;;;;;;;84.60;31.50;;;11.20;99.90;;;;;;4953511;28;20051;-80
2022/01/01 06:00:02;;;;;;;83.03;31.67;;;11.20;99.90;;;;;;4960216;28;20058;-78
2022/01/01 06:02:28;;;;;;;79.93;30.35;;;11.20;99.90;;;;;;4941065;28;20171;-78
2022/01/01 06:04:53;;;;;;;67.13;26.30;;;11.10;99.90;;;;;;4976934;28;20447;-78
2022/01/01 06:07:19;;;;;;;80.60;28.13;;;11.10;99.90;;;;;;4976956;28;20615;-78
2022/01/01 06:09:45;;;;;;;73.93;27.92;;;11.10;99.90;;;;;;4976127;28;20066;-78
2022/01/01 06:12:11;;;;;;;;;;;11.10;99.90;;;;;;4967094;28;20526;-77
2022/01/01 06:14:37;;;;;;;64.32;24.08;;;11.10;99.90;;;;;;4942431;28;19922;-78
2022/01/01 06:17:03;;;;;;;61.17;21.17;;;11.10;99.90;;;;;;4960657;28;20105;-77
2022/01/01 06:19:29;;;;;;;69.72;23.38;;;11.10;99.90;;;;;;4960272;28;20550;-79
2022/01/01 06:21:54;;;;;;;73.63;23.67;;;11.20;99.90;;;;;;4976845;28;20051;-77
2022/01/01 06:24:20;;;;;;;57.00;21.70;;;11.10;99.90;;;;;;4957140;29;20051;-78
2022/01/01 06:26:46;;;;;;;54.72;19.65;;;11.10;99.90;;;;;;4940907;29;20066;-77
2022/01/01 06:29:11;;;;;;;63.10;20.50;;;11.10;99.90;;;;;;4943809;28;20051;-78
2022/01/01 06:31:37;;;;;;;53.85;19.50;;;11.10;99.90;;;;;;4960223;28;20062;-77
2022/01/01 06:34:03;;;;;;;57.75;18.13;;;11.10;99.90;;;;;;4959694;28;20069;-79
2022/01/01 06:36:29;;;;;;;48.83;18.38;;;11.20;99.90;;;;;;4960078;28;20047;-78
2022/01/01 06:38:55;;;;;;;51.38;16.38;;;11.20;99.90;;;;;;4941702;28;20051;-78
2022/01/01 06:41:20;;;;;;;56.00;18.92;;;11.10;99.90;;;;;;4962224;28;20058;-78
2022/01/01 06:43:46;;;;;;;50.20;17.98;;;11.10;99.90;;;;;;4974797;28;20061;-78
2022/01/01 06:46:12;;;;;;;49.15;18.55;;;11.20;99.90;;;;;;4959157;28;20046;-78
2022/01/01 06:48:37;;;;;;;57.53;18.55;;;11.20;99.90;;;;;;4976172;28;20137;-78
2022/01/01 06:51:03;;;;;;;52.25;16.60;;;11.10;99.90;;;;;;4976658;28;20046;-77
2022/01/01 06:53:29;;;;;;;50.10;18.27;;;11.20;99.90;;;;;;4992216;28;20043;-78
2022/01/01 06:55:55;;;;;;;49.45;18.00;;;11.20;99.90;;;;;;4976116;28;20481;-78
2022/01/01 06:58:20;;;;;;;50.42;18.40;;;11.20;99.90;;;;;;4975782;28;20055;-78
2022/01/01 07:00:46;;;;;;;53.47;18.52;;;11.20;99.90;;;;;;4973998;28;20246;-77
2022/01/01 07:03:12;;;;;;;42.03;16.73;;;11.10;99.90;;;;;;4992859;28;20046;-78
2022/01/01 07:05:37;;;;;;;54.55;18.30;;;11.20;99.90;;;;;;4992069;28;20054;-77
2022/01/01 07:08:04;;;;;;;49.92;18.88;;;11.20;99.90;;;;;;4975841;28;20054;-78
2022/01/01 07:10:29;;;;;;;;;;;11.20;99.90;;;;;;4973552;28;20053;-82
2022/01/01 07:12:55;;;;;;;58.45;19.80;;;11.20;99.90;;;;;;4957143;28;19926;-78
2022/01/01 07:15:20;;;;;;;57.97;20.33;;;11.10;99.90;;;;;;4955589;28;20370;-80
2022/01/01 07:17:46;;;;;;;62.45;20.65;;;11.10;99.90;;;;;;4972781;28;20384;-78
2022/01/01 07:20:12;;;;;;;59.80;21.55;;;11.10;99.90;;;;;;4957217;28;20050;-77
2022/01/01 07:22:45;;;;;;;68.65;21.92;;;11.10;99.90;;;;;;4972211;28;20046;-77
2022/01/01 07:25:12;;;;;;;75.15;23.13;;;11.10;99.90;;;;;;4973513;28;20051;-78
2022/01/01 07:27:39;;;;;;;61.28;22.27;;;11.00;99.90;;;;;;4956414;28;20050;-77
2022/01/01 07:30:05;;;;;;;61.47;21.58;;;11.10;99.90;;;;;;4969512;28;20050;-79
2022/01/01 07:32:31;;;;;;;72.00;22.52;;;11.00;99.90;;;;;;4951812;28;20137;-78
2022/01/01 07:34:57;;;;;;;64.03;22.88;;;11.00;99.90;;;;;;4965299;28;20127;-77
2022/01/01 07:37:23;;;;;;;64.43;23.48;;;11.00;99.90;;;;;;4958195;28;20047;-77
2022/01/01 07:39:48;;;;;;;65.43;23.73;;;11.00;99.90;;;;;;4971600;28;20050;-79
2022/01/01 07:42:14;;;;;;;69.43;23.23;;;11.00;99.90;;;;;;4956063;28;20118;-77
2022/01/01 07:44:41;;;;;;;73.30;23.65;;;11.00;99.90;;;;;;4971687;28;20128;-77
2022/01/01 07:47:07;;;;;;;63.03;22.30;;;11.00;99.90;;;;;;4972769;28;20456;-77
2022/01/01 07:49:32;;;;;;;68.45;23.83;;;11.10;99.90;;;;;;4988105;28;20078;-78
2022/01/01 07:51:58;;;;;;;71.25;23.27;;;11.10;99.90;;;;;;4972956;28;20484;-78
2022/01/01 07:54:24;;;;;;;78.72;24.13;;;11.10;99.90;;;;;;4972177;28;20138;-77
2022/01/01 07:56:50;;;;;;;69.78;24.10;;;11.10;99.90;;;;;;4988371;28;20623;-77
2022/01/01 07:59:16;;;;;;;70.07;24.08;;;11.10;99.90;;;;;;4986891;28;20055;-77
2022/01/01 08:01:43;;;;;;;71.57;24.20;;;11.20;99.90;;;;;;4987806;28;20058;-77
2022/01/01 08:04:09;;;;;;;63.67;22.67;;;11.20;99.90;;;;;;4956595;28;20050;-77
2022/01/01 08:06:35;;;;;;;63.50;23.35;;;11.20;99.90;;;;;;4955968;28;20062;-77
2022/01/01 08:09:01;;;;;;;63.67;24.95;;;11.20;99.90;;;;;;4972067;28;20444;-78
2022/01/01 08:11:27;;;;;;;;;;;11.20;99.90;;;;;;4972886;28;20082;-78
2022/01/01 08:13:53;;;;;;;74.03;24.88;;;11.20;99.90;;;;;;4953790;28;20039;-81
2022/01/01 08:16:20;;;;;;;65.00;24.70;;;11.30;99.90;;;;;;4972159;28;20056;-78
2022/01/01 08:18:45;;;;;;;77.57;26.13;;;11.30;99.90;;;;;;4971851;28;20055;-77
2022/01/01 08:21:11;;;;;;;64.88;25.88;;;11.30;99.90;;;;;;4951856;28;20065;-77
2022/01/01 08:23:37;;;;;;;68.40;23.75;;;11.30;99.90;;;;;;4947252;28;20058;-78
2022/01/01 08:26:03;;;;;;;64.40;24.13;;;11.30;99.90;;;;;;4972663;28;20046;-77
2022/01/01 08:28:29;;;;;;;66.03;24.50;;;11.40;99.90;;;;;;4969649;28;20062;-78
2022/01/01 08:30:55;;;;;;;66.40;23.25;;;11.40;99.90;;;;;;4969549;28;20050;-77
2022/01/01 08:33:21;;;;;;;66.78;24.80;;;11.40;99.90;;;;;;4972213;28;20046;-78
2022/01/01 08:35:47;;;;;;;68.88;24.50;;;11.40;99.90;;;;;;4971540;28;20050;-78
2022/01/01 08:38:13;;;;;;;69.25;24.33;;;11.40;99.90;;;;;;4971826;28;20522;-78
2022/01/01 08:40:39;;;;;;;62.80;24.98;;;11.50;99.90;;;;;;4954728;28;20076;-78
2022/01/01 08:43:05;;;;;;;64.45;24.38;;;11.50;99.90;;;;;;4971174;28;20065;-77
2022/01/01 08:45:31;;;;;;;65.45;25.20;;;11.50;99.90;;;;;;4970180;28;20042;-77
2022/01/01 08:47:57;;;;;;;66.63;26.40;;;11.50;99.90;;;;;;4961672;28;20087;-78
2022/01/01 08:50:23;;;;;;;65.95;25.55;;;11.50;99.90;;;;;;4969267;28;20057;-78
2022/01/01 08:52:48;;;;;;;67.05;26.00;;;11.60;99.90;;;;;;4970782;28;20047;-77
2022/01/01 08:55:14;;;;;;;61.20;24.13;;;11.60;99.90;;;;;;4955439;28;20081;-77
2022/01/01 08:57:40;;;;;;;61.53;24.00;;;11.60;99.90;;;;;;4970550;28;20081;-78
2022/01/01 09:00:10;;;;;;;64.85;23.80;;;11.60;99.90;;;;;;4953630;28;20070;-77
2022/01/01 09:02:36;;;;;;;54.65;22.40;;;11.70;99.90;;;;;;4971322;28;20082;-77
2022/01/01 09:05:03;;;;;;;56.15;20.45;;;11.70;99.90;;;;;;4971061;28;20149;-78
2022/01/01 09:07:29;;;;;;;53.88;22.35;;;11.70;99.90;;;;;;4970782;28;20374;-77
2022/01/01 09:09:58;;;;;;;;;;;11.80;99.90;;;;;;4970639;28;20050;-78
2022/01/01 09:12:25;;;;;;;47.53;18.42;;;11.80;99.90;;;;;;4971399;28;20657;-78
2022/01/01 09:14:52;;;;;;;44.63;18.67;;;11.80;99.90;;;;;;4968431;28;20051;-77
2022/01/01 09:17:18;;;;;;;49.80;20.45;;;11.90;99.90;;;;;;4954926;28;20396;-77
2022/01/01 09:19:44;;;;;;;50.35;20.08;;;11.90;99.90;;;;;;4969945;28;20101;-79
2022/01/01 09:22:09;;;;;;;42.08;18.83;;;11.90;99.90;;;;;;4955015;28;20105;-78
2022/01/01 09:24:35;;;;;;;41.60;17.05;;;11.90;99.90;;;;;;4970912;28;20050;-78
2022/01/01 09:27:02;;;;;;;41.40;17.23;;;11.90;99.90;;;;;;4970635;28;20109;-78
2022/01/01 09:29:27;;;;;;;40.17;16.58;;;12.00;99.90;;;;;;4985245;28;20055;-78
2022/01/01 09:31:53;;;;;;;44.60;16.50;;;12.00;99.90;;;;;;4970674;28;20058;-77
2022/01/01 09:34:19;;;;;;;37.45;16.38;;;12.00;99.90;;;;;;4984943;28;20400;-77
2022/01/01 09:36:47;;;;;;;43.78;17.17;;;12.00;99.90;;;;;;4969776;28;20089;-78
2022/01/01 09:39:12;;;;;;;41.15;17.08;;;12.10;99.90;;;;;;4937695;28;20054;-77
2022/01/01 09:41:41;;;;;;;32.42;14.98;;;12.10;99.90;;;;;;4970615;28;20400;-78
2022/01/01 09:44:15;;;;;;;33.85;15.30;;;12.20;99.90;;;;;;4930483;28;20509;-79
2022/01/01 09:46:44;;;;;;;32.83;13.65;;;12.10;99.90;;;;;;4950076;28;20436;-81
2022/01/01 09:49:12;;;;;;;45.55;14.18;;;12.20;99.90;;;;;;4929423;28;20052;-77
2022/01/01 09:51:40;;;;;;;38.00;14.30;;;12.20;99.90;;;;;;4935588;28;20054;-77
2022/01/01 09:54:07;;;;;;;32.83;12.68;;;12.20;99.90;;;;;;4938286;28;20090;-78
2022/01/01 09:56:32;;;;;;;33.28;13.20;;;12.20;99.90;;;;;;4941108;28;20529;-77
2022/01/01 09:58:58;;;;;;;31.25;13.13;;;12.30;99.90;;;;;;4951378;28;20174;-78
2022/01/01 10:01:24;;;;;;;28.50;12.48;;;12.30;99.90;;;;;;4952927;28;20489;-79
2022/01/01 10:03:52;;;;;;;25.77;11.80;;;12.40;99.90;;;;;;4950640;28;20051;-78
2022/01/01 10:06:20;;;;;;;29.45;11.57;;;12.40;99.90;;;;;;4933150;28;20051;-78
2022/01/01 10:08:57;;;;;;;34.55;12.40;;;12.40;99.90;;;;;;4935106;28;20862;-82
2022/01/01 10:11:24;;;;;;;25.05;10.52;;;12.40;99.90;;;;;;4935722;28;20042;-78
2022/01/01 10:13:50;;;;;;;31.40;11.52;;;12.50;99.90;;;;;;4931259;28;20373;-79
2022/01/01 10:16:17;;;;;;;24.35;11.10;;;12.50;99.90;;;;;;4948254;28;20556;-79
2022/01/01 10:18:45;;;;;;;31.70;10.95;;;12.50;99.90;;;;;;4935928;28;20051;-78
2022/01/01 10:21:14;;;;;;;27.40;10.10;;;12.60;99.90;;;;;;4929546;28;20047;-79
2022/01/01 10:23:45;;;;;;;24.20;10.82;;;12.60;99.90;;;;;;4934837;28;20583;-78
2022/01/01 10:29:15;;;;;;;24.17;9.88;;;12.50;99.90;;;;;;4930694;28;20067;-80
2022/01/01 10:31:56;;;;;;;22.70;8.27;;;12.50;99.90;;;;;;4948552;28;20492;-78
2022/01/01 10:34:29;;;;;;;24.75;8.82;;;12.50;99.90;;;;;;4933233;28;20062;-79
2022/01/01 10:36:55;;;;;;;19.83;8.18;;;12.50;99.90;;;;;;4952438;28;20050;-81
2022/01/01 10:39:22;;;;;;;19.75;8.00;;;12.50;99.90;;;;;;4944765;28;20046;-78
2022/01/01 10:41:58;;;;;;;25.73;9.15;;;12.50;99.90;;;;;;4949513;28;20089;-76
2022/01/01 10:44:28;;;;;;;25.80;8.48;;;12.50;99.90;;;;;;4945298;28;20070;-76
2022/01/01 10:46:55;;;;;;;22.42;7.90;;;12.50;99.90;;;;;;4937793;28;20508;-76
2022/01/01 10:49:50;;;;;;;22.25;7.68;;;12.40;99.90;;;;;;4940795;28;20048;-76
2022/01/01 10:52:24;;;;;;;19.95;7.35;;;12.40;99.90;;;;;;4941601;28;20054;-75
2022/01/01 10:54:54;;;;;;;26.73;7.78;;;12.40;99.90;;;;;;4925881;28;20047;-80
2022/01/01 10:57:24;;;;;;;25.40;8.00;;;12.40;99.90;;;;;;4935609;28;20059;-76
2022/01/01 10:59:50;;;;;;;19.58;7.57;;;12.40;99.90;;;;;;4933374;28;20082;-77
2022/01/01 11:02:22;;;;;;;19.27;7.28;;;12.50;99.90;;;;;;4937685;28;20043;-76
2022/01/01 11:04:48;;;;;;;17.33;6.95;;;12.40;99.90;;;;;;4937738;28;20051;-77
2022/01/01 11:07:27;;;;;;;20.52;7.88;;;12.40;99.90;;;;;;4950854;28;20057;-76
2022/01/01 11:09:55;;;;;;;22.20;6.95;;;12.40;99.90;;;;;;4949960;28;20038;-79
2022/01/01 11:12:22;;;;;;;19.77;6.50;;;12.40;99.90;;;;;;4953711;28;20397;-78
2022/01/01 11:14:48;;;;;;;19.73;7.13;;;12.40;99.90;;;;;;4940630;28;20087;-77
2022/01/01 11:17:16;;;;;;;18.02;6.53;;;12.40;99.90;;;;;;4952658;28;20105;-76
2022/01/01 11:19:42;;;;;;;17.92;6.65;;;12.50;99.90;;;;;;4954474;28;20050;-77
2022/01/01 11:22:09;;;;;;;19.83;6.68;;;12.50;99.90;;;;;;4952600;28;20043;-78
2022/01/01 11:24:38;;;;;;;16.73;6.20;;;12.40;99.90;;;;;;4964300;28;20054;-77
2022/01/01 11:27:05;;;;;;;19.00;6.32;;;12.40;99.90;;;;;;4950990;28;20097;-77
2022/01/01 11:29:34;;;;;;;19.90;7.25;;;12.40;99.90;;;;;;4933571;28;20050;-80
2022/01/01 11:32:01;;;;;;;18.00;6.80;;;12.50;99.90;;;;;;4922861;28;20046;-78
2022/01/01 11:34:36;;;;;;;16.48;7.15;;;12.40;99.90;;;;;;4936296;28;20051;-77
2022/01/01 11:37:02;;;;;;;16.92;6.00;;;12.40;99.90;;;;;;4935025;28;20066;-81
2022/01/01 11:39:28;;;;;;;;;;;12.40;99.90;;;;;;4953280;28;20130;-78
2022/01/01 11:42:12;;;;;;;18.38;6.45;;;12.40;99.90;;;;;;4935671;28;20016;-81
2022/01/01 11:44:59;;;;;;;18.73;6.10;;;12.40;99.90;;;;;;4952322;28;20054;-77
2022/01/01 11:47:25;;;;;;;16.67;6.28;;;12.40;99.90;;;;;;4953847;28;20137;-77
2022/01/01 11:49:52;;;;;;;15.63;5.18;;;12.50;99.90;;;;;;4948938;28;20134;-78
2022/01/01 11:52:41;;;;;;;14.55;6.63;;;12.50;99.90;;;;;;4948970;28;20518;-79
2022/01/01 11:55:12;;;;;;;16.48;5.85;;;12.50;99.90;;;;;;4950440;28;20043;-78
2022/01/01 11:57:52;;;;;;;18.08;6.20;;;12.50;99.90;;;;;;4941751;28;20050;-77
2022/01/01 12:00:21;;;;;;;16.77;6.43;;;12.50;99.90;;;;;;4934586;28;20725;-78
2022/01/01 12:02:49;;;;;;;14.40;5.55;;;12.50;99.90;;;;;;4940115;29;20440;-78
2022/01/01 12:05:29;;;;;;;14.10;6.10;;;12.50;99.90;;;;;;4936416;29;20134;-77
2022/01/01 12:07:58;;;;;;;16.05;6.65;;;12.50;99.90;;;;;;4936579;29;20061;-77
2022/01/01 12:10:35;;;;;;;21.25;5.88;;;12.60;99.90;;;;;;4936249;29;20047;-77
2022/01/01 12:13:09;;;;;;;16.40;6.75;;;12.60;99.90;;;;;;4936218;29;20063;-78
2022/01/01 12:15:49;;;;;;;21.15;7.15;;;12.60;99.90;;;;;;4937098;28;20073;-77
2022/01/01 12:18:23;;;;;;;16.05;6.07;;;12.60;99.90;;;;;;4950690;28;20568;-77
2022/01/01 12:21:03;;;;;;;16.98;6.18;;;12.60;99.90;;;;;;4948883;29;20047;-77
2022/01/01 12:23:33;;;;;;;16.65;6.05;;;12.70;99.90;;;;;;4935994;29;20546;-77
2022/01/01 12:25:59;;;;;;;13.98;6.10;;;12.70;99.90;;;;;;4936450;29;20669;-82
2022/01/01 12:28:31;;;;;;;17.80;6.30;;;12.70;99.90;;;;;;4937715;28;20130;-80
2022/01/01 12:31:34;;;;;;;16.63;6.28;;;12.70;99.90;;;;;;4940273;28;20100;-77
2022/01/01 12:34:10;;;;;;;19.80;6.35;;;12.70;99.90;;;;;;4946550;28;20066;-80
2022/01/01 12:36:41;;;;;;;19.95;7.82;;;12.70;99.90;;;;;;4938778;28;20082;-78